Time;durP1;ratioP1;P1;durP2;ratioP2;P2;SDS_P1;SDS_P2;PMS_P1;PMS_P2;Temp;Humidity;BMP_temperature;BMP_pressure;BME280_temperature;BME280_humidity;BME280_pressure;Samples;Min_cycle;Max_cycle;Signal;HPM_P1;HPM_P2
2022/01/28 00:01:56;;;;;;;7.07;3.00;;;5.40;99.90;;;;;;5116215;28;20047;-69
2022/01/28 00:04:23;;;;;;;7.25;3.30;;;5.50;99.90;;;;;;5131953;27;20035;-67
2022/01/28 00:06:48;;;;;;;4.50;3.28;;;5.50;99.90;;;;;;5117089;28;20016;-67
2022/01/28 00:09:14;;;;;;;5.68;2.90;;;5.50;99.90;;;;;;5132665;27;20471;-68
2022/01/28 00:11:40;;;;;;;4.43;2.38;;;5.50;99.90;;;;;;5116477;28;20445;-68
2022/01/28 00:21:00;;;;;;;10.93;3.28;;;5.70;99.90;;;;;;5116377;28;20030;-69
2022/01/28 00:39:04;;;;;;;8.10;3.70;;;5.60;99.90;;;;;;5115883;28;20115;-68
2022/01/28 00:41:30;;;;;;;7.35;3.17;;;5.60;99.90;;;;;;5130917;27;20051;-69
2022/01/28 00:43:55;;;;;;;6.70;3.08;;;5.60;99.90;;;;;;5115838;28;20031;-68
2022/01/28 00:46:21;;;;;;;5.95;3.30;;;5.60;99.90;;;;;;5114944;28;20023;-70
2022/01/28 00:48:46;;;;;;;9.15;4.63;;;5.70;99.90;;;;;;5131442;27;20032;-68
2022/01/28 00:51:12;;;;;;;6.90;3.05;;;5.70;99.90;;;;;;5115570;28;20024;-68
2022/01/28 00:53:37;;;;;;;5.35;3.00;;;5.70;99.90;;;;;;5131309;27;20871;-67
2022/01/28 00:56:03;;;;;;;7.75;3.67;;;5.70;99.90;;;;;;5132255;27;20529;-67
2022/01/28 00:58:29;;;;;;;6.80;3.35;;;5.60;99.90;;;;;;5115803;28;20043;-69
2022/01/28 01:00:55;;;;;;;7.53;3.75;;;5.60;99.90;;;;;;5114956;28;20121;-67
2022/01/28 01:03:20;;;;;;;7.20;3.88;;;5.60;99.90;;;;;;5115815;28;20102;-70
2022/01/28 01:05:46;;;;;;;4.90;3.60;;;5.60;99.90;;;;;;5116805;28;20024;-69
2022/01/28 01:08:12;;;;;;;5.78;2.92;;;5.50;99.90;;;;;;5132575;27;20027;-69
2022/01/28 01:10:38;;;;;;;4.45;2.65;;;5.50;99.90;;;;;;5097112;28;20027;-69
2022/01/28 01:13:04;;;;;;;6.57;2.67;;;5.50;99.90;;;;;;5131517;27;20019;-69
2022/01/28 01:15:35;;;;;;;4.40;2.10;;;5.40;99.90;;;;;;5112996;28;20024;-70
2022/01/28 01:18:18;;;;;;;3.38;1.83;;;5.40;99.90;;;;;;5115269;28;20023;-68
2022/01/28 01:23:13;;;;;;;5.32;1.63;;;5.50;99.90;;;;;;5115446;28;20085;-71
2022/01/28 01:26:09;;;;;;;3.30;1.98;;;5.50;99.90;;;;;;5113280;28;20035;-68
2022/01/28 01:28:34;;;;;;;2.17;1.63;;;5.60;99.90;;;;;;5113960;28;20024;-69
2022/01/28 01:31:03;;;;;;;3.53;2.35;;;5.50;99.90;;;;;;5114771;27;20051;-69
2022/01/28 01:33:32;;;;;;;5.13;1.50;;;5.50;99.90;;;;;;5113032;28;20483;-69
2022/01/28 01:35:59;;;;;;;1.92;1.20;;;5.50;99.90;;;;;;5115024;28;20024;-69
2022/01/28 01:38:27;;;;;;;4.72;1.67;;;5.50;99.90;;;;;;5114396;28;20020;-70
2022/01/28 01:40:58;;;;;;;7.70;1.42;;;5.50;99.90;;;;;;5132197;27;20024;-70
2022/01/28 01:46:04;;;;;;;4.82;1.60;;;5.50;99.90;;;;;;5116735;28;20047;-69
2022/01/28 01:54:00;;;;;;;3.75;1.38;;;5.40;99.90;;;;;;5117902;28;20499;-68
2022/01/28 01:56:28;;;;;;;4.47;1.17;;;5.40;99.90;;;;;;5116949;28;20023;-74
2022/01/28 01:58:54;;;;;;;7.00;1.33;;;5.50;99.90;;;;;;5116820;28;20507;-68
2022/01/28 02:01:20;;;;;;;7.38;1.90;;;5.40;99.90;;;;;;5114568;28;20020;-70
2022/01/28 02:03:46;;;;;;;6.65;2.00;;;5.50;99.90;;;;;;5114678;28;20377;-68
2022/01/28 02:06:11;;;;;;;4.07;1.48;;;5.40;99.90;;;;;;5116582;28;20487;-68
2022/01/28 02:08:37;;;;;;;4.32;1.52;;;5.30;99.90;;;;;;5131546;27;20028;-70
2022/01/28 02:11:03;;;;;;;9.05;1.70;;;5.30;99.90;;;;;;5113847;28;20479;-68
2022/01/28 02:13:34;;;;;;;2.85;1.35;;;5.40;99.90;;;;;;5113409;28;20024;-69
2022/01/28 02:16:01;;;;;;;5.88;1.65;;;5.40;99.90;;;;;;5112864;28;20034;-69
2022/01/28 02:18:26;;;;;;;5.28;1.85;;;5.30;99.90;;;;;;5115077;28;20096;-69
2022/01/28 02:20:55;;;;;;;4.82;1.38;;;5.30;99.90;;;;;;5114646;28;20457;-69
2022/01/28 02:23:23;;;;;;;12.18;2.67;;;5.30;99.90;;;;;;5130093;27;20039;-69
2022/01/28 02:25:49;;;;;;;6.45;1.65;;;5.40;99.90;;;;;;5113499;28;20039;-67
2022/01/28 02:28:18;;;;;;;6.55;1.75;;;5.30;99.90;;;;;;5129759;27;20026;-68
2022/01/28 02:30:45;;;;;;;6.45;1.77;;;5.30;99.90;;;;;;5113256;28;20457;-69
2022/01/28 02:33:15;;;;;;;5.93;1.83;;;5.30;99.90;;;;;;5113742;28;20065;-67
2022/01/28 02:35:42;;;;;;;7.13;1.60;;;5.40;99.90;;;;;;5128744;27;20030;-68
2022/01/28 02:38:12;;;;;;;6.57;2.35;;;5.30;99.90;;;;;;5113633;28;20123;-69
2022/01/28 02:40:41;;;;;;;13.45;2.72;;;5.30;99.90;;;;;;5113109;28;20027;-67
2022/01/28 02:45:54;;;;;;;8.75;1.77;;;5.30;99.90;;;;;;5113713;28;20097;-67
2022/01/28 02:48:24;;;;;;;7.55;1.80;;;5.30;99.90;;;;;;5112781;28;20024;-67
2022/01/28 02:53:25;;;;;;;4.00;1.40;;;5.40;99.90;;;;;;5113367;28;20038;-68
2022/01/28 02:55:59;;;;;;;10.30;2.10;;;5.40;99.90;;;;;;5113519;28;20419;-69
2022/01/28 02:58:26;;;;;;;3.83;1.05;;;5.30;99.90;;;;;;5124137;27;20023;-69
2022/01/28 03:00:57;;;;;;;2.13;0.70;;;5.40;99.90;;;;;;5116230;28;20055;-71
2022/01/28 03:03:24;;;;;;;3.23;1.03;;;5.30;99.90;;;;;;5116295;28;20019;-68
2022/01/28 03:05:53;;;;;;;2.28;1.02;;;5.30;99.90;;;;;;5113785;28;20289;-68
2022/01/28 03:08:26;;;;;;;2.15;1.10;;;5.30;99.90;;;;;;5111848;28;20031;-68
2022/01/28 03:16:17;;;;;;;3.67;0.88;;;5.20;99.90;;;;;;5114730;28;20023;-69
2022/01/28 03:21:21;;;;;;;3.88;1.13;;;5.20;99.90;;;;;;5115941;28;20028;-69
2022/01/28 03:23:47;;;;;;;5.30;1.13;;;5.10;99.90;;;;;;5114576;28;20035;-69
2022/01/28 03:26:14;;;;;;;4.78;1.13;;;5.10;99.90;;;;;;5113898;28;20530;-69
2022/01/28 03:28:39;;;;;;;2.80;1.10;;;5.20;99.90;;;;;;5116075;28;20117;-68
2022/01/28 03:31:06;;;;;;;4.32;1.50;;;5.10;99.90;;;;;;5116286;28;20035;-69
2022/01/28 03:33:31;;;;;;;5.75;1.35;;;5.10;99.90;;;;;;5114780;28;20480;-69
2022/01/28 03:35:57;;;;;;;7.22;1.60;;;5.10;99.90;;;;;;5114592;28;20027;-68
2022/01/28 03:38:23;;;;;;;7.05;2.08;;;5.10;99.90;;;;;;5113950;28;20099;-68
2022/01/28 03:40:51;;;;;;;5.18;1.38;;;5.00;99.90;;;;;;5113062;28;20027;-69
2022/01/28 03:43:16;;;;;;;4.13;1.88;;;5.00;99.90;;;;;;5112619;28;20030;-69
2022/01/28 03:45:42;;;;;;;6.07;1.65;;;5.00;99.90;;;;;;5111973;28;20036;-69
2022/01/28 03:48:08;;;;;;;7.85;1.98;;;4.90;99.90;;;;;;5112974;28;20465;-69
2022/01/28 03:50:34;;;;;;;7.80;2.30;;;4.90;99.90;;;;;;5112616;28;20020;-69
2022/01/28 03:53:04;;;;;;;7.82;2.22;;;4.90;99.90;;;;;;5116814;28;20047;-68
2022/01/28 03:55:30;;;;;;;10.05;2.72;;;4.80;99.90;;;;;;5116660;28;20034;-68
2022/01/28 03:57:56;;;;;;;5.55;2.13;;;4.80;99.90;;;;;;5116055;28;20024;-69
2022/01/28 04:00:26;;;;;;;8.40;2.22;;;4.90;99.90;;;;;;5116149;28;20019;-69
2022/01/28 04:03:02;;;;;;;7.20;1.83;;;4.90;99.90;;;;;;5117129;28;20023;-69
2022/01/28 04:13:31;;;;;;;4.00;1.77;;;4.90;99.90;;;;;;5116787;28;20030;-68
2022/01/28 04:18:22;;;;;;;5.60;2.13;;;5.00;99.90;;;;;;5116616;28;20032;-70
2022/01/28 04:20:48;;;;;;;8.45;3.42;;;5.00;99.90;;;;;;5115822;28;20020;-69
2022/01/28 04:23:14;;;;;;;6.47;1.70;;;5.00;99.90;;;;;;5115616;28;20023;-69
2022/01/28 04:25:40;;;;;;;4.93;1.25;;;5.10;99.90;;;;;;5116189;28;20027;-70
2022/01/28 04:28:05;;;;;;;13.32;3.03;;;5.10;99.90;;;;;;5115436;28;20053;-68
2022/01/28 04:30:31;;;;;;;9.43;1.83;;;5.10;99.90;;;;;;5116294;28;20024;-71
2022/01/28 04:32:57;;;;;;;8.18;2.15;;;5.10;99.90;;;;;;5117015;28;20054;-67
2022/01/28 04:35:23;;;;;;;7.00;2.75;;;5.10;99.90;;;;;;5117235;28;20055;-69
2022/01/28 04:41:14;;;;;;;6.80;1.58;;;5.10;99.90;;;;;;5072250;28;20494;-68
2022/01/28 04:43:52;;;;;;;7.75;1.60;;;5.10;99.90;;;;;;5071970;28;20074;-68
2022/01/28 04:48:58;;;;;;;19.30;3.30;;;5.10;99.90;;;;;;5072085;28;20041;-70
2022/01/28 04:55:05;;;;;;;7.53;2.38;;;5.10;99.90;;;;;;5072326;28;20032;-70
2022/01/28 04:58:01;;;;;;;8.15;2.10;;;5.00;99.90;;;;;;5058828;28;20127;-68
2022/01/28 05:00:06;;;;;;;13.73;2.67;;;5.00;99.90;;;;;;5060180;28;20112;-69
2022/01/28 05:26:12;;;;;;;8.32;2.63;;;4.80;99.90;;;;;;5115988;28;20040;-68
2022/01/28 05:28:36;;;;;;;14.02;2.53;;;4.90;99.90;;;;;;5114719;28;20443;-69
2022/01/28 05:31:01;;;;;;;7.15;1.95;;;4.80;99.90;;;;;;5115033;28;20077;-67
2022/01/28 05:33:27;;;;;;;12.55;2.13;;;4.90;99.90;;;;;;5113470;28;20023;-69
2022/01/28 05:35:53;;;;;;;5.72;1.48;;;4.90;99.90;;;;;;5113079;28;20522;-68
2022/01/28 05:38:18;;;;;;;8.90;1.55;;;5.00;99.90;;;;;;5114786;28;20076;-68
2022/01/28 05:40:44;;;;;;;6.95;2.05;;;5.00;99.90;;;;;;5112908;28;20035;-68
2022/01/28 05:43:10;;;;;;;10.32;2.03;;;5.00;99.90;;;;;;5114743;28;20027;-69
2022/01/28 05:45:35;;;;;;;8.88;1.90;;;5.00;99.90;;;;;;5113541;28;20508;-70
2022/01/28 05:48:01;;;;;;;12.10;3.55;;;4.90;99.90;;;;;;5114349;28;20027;-69
2022/01/28 05:50:27;;;;;;;8.40;1.77;;;5.00;99.90;;;;;;5113232;28;20047;-68
2022/01/28 05:52:52;;;;;;;9.13;2.47;;;5.00;99.90;;;;;;5113569;28;20419;-68
2022/01/28 05:55:18;;;;;;;11.25;1.58;;;5.10;99.90;;;;;;5112800;28;20028;-67
2022/01/28 05:57:44;;;;;;;3.67;1.48;;;5.20;99.90;;;;;;5113716;28;20024;-69
2022/01/28 06:00:10;;;;;;;15.40;3.60;;;5.20;99.90;;;;;;5112545;28;20479;-68
2022/01/28 06:02:36;;;;;;;6.90;2.28;;;5.20;99.90;;;;;;5113990;28;20031;-70
2022/01/28 06:05:02;;;;;;;7.60;1.63;;;5.20;99.90;;;;;;5115201;28;20024;-68
2022/01/28 06:07:27;;;;;;;15.85;2.33;;;5.30;99.90;;;;;;5116518;28;20439;-68
2022/01/28 06:09:53;;;;;;;13.13;3.15;;;5.30;99.90;;;;;;5113782;28;20024;-71
2022/01/28 06:12:20;;;;;;;13.30;2.25;;;5.30;99.90;;;;;;5112754;28;20023;-69
2022/01/28 06:14:46;;;;;;;10.07;1.90;;;5.30;99.90;;;;;;5113027;28;20027;-69
2022/01/28 06:17:11;;;;;;;5.65;2.40;;;5.40;99.90;;;;;;5112511;28;20122;-69
2022/01/28 06:19:37;;;;;;;8.35;2.10;;;5.40;99.90;;;;;;5113852;28;20080;-72
2022/01/28 06:22:03;;;;;;;9.55;2.50;;;5.40;99.90;;;;;;5113478;28;20039;-67
2022/01/28 06:24:29;;;;;;;12.45;2.72;;;5.30;99.90;;;;;;5113709;28;20487;-68
2022/01/28 06:26:55;;;;;;;9.43;2.28;;;5.30;99.90;;;;;;5111613;28;20092;-69
2022/01/28 06:29:21;;;;;;;11.48;2.53;;;5.30;99.90;;;;;;5113829;28;20054;-68
2022/01/28 06:31:47;;;;;;;7.95;1.92;;;5.30;99.90;;;;;;5112080;28;20429;-68
2022/01/28 06:34:13;;;;;;;6.93;1.98;;;5.30;99.90;;;;;;5112457;28;20126;-70
2022/01/28 06:36:39;;;;;;;7.88;2.08;;;5.30;99.90;;;;;;5113518;28;20063;-70
2022/01/28 06:39:04;;;;;;;11.70;2.08;;;5.30;99.90;;;;;;5113016;28;20024;-68
2022/01/28 06:41:30;;;;;;;12.63;2.25;;;5.30;99.90;;;;;;5113414;28;20506;-69
2022/01/28 06:43:57;;;;;;;11.43;2.30;;;5.30;99.90;;;;;;5113406;28;20040;-68
2022/01/28 06:46:24;;;;;;;16.50;3.17;;;5.30;99.90;;;;;;5112114;28;20024;-69
2022/01/28 06:48:50;;;;;;;15.23;2.25;;;5.30;99.90;;;;;;5113331;28;20418;-69
2022/01/28 06:51:16;;;;;;;8.77;2.17;;;5.30;99.90;;;;;;5114329;28;20035;-70
2022/01/28 06:53:41;;;;;;;13.90;3.00;;;5.30;99.90;;;;;;5114964;28;20030;-70
2022/01/28 06:56:07;;;;;;;9.40;2.08;;;5.30;99.90;;;;;;5114828;28;20073;-70
2022/01/28 06:58:33;;;;;;;10.15;2.55;;;5.20;99.90;;;;;;5114191;28;20031;-69
2022/01/28 07:00:58;;;;;;;17.13;3.53;;;5.30;99.90;;;;;;5113557;28;20024;-71
2022/01/28 07:03:24;;;;;;;11.35;3.15;;;5.20;99.90;;;;;;5112659;28;20034;-68
2022/01/28 07:05:49;;;;;;;12.18;2.10;;;5.20;99.90;;;;;;5113817;28;20061;-69
2022/01/28 07:08:15;;;;;;;12.50;2.78;;;5.20;99.90;;;;;;5115119;28;20019;-69
2022/01/28 07:10:41;;;;;;;14.18;2.78;;;5.30;99.90;;;;;;5114472;28;20381;-75
2022/01/28 07:13:06;;;;;;;8.18;2.75;;;5.30;99.90;;;;;;5115423;28;20164;-73
2022/01/28 07:15:32;;;;;;;12.38;3.90;;;5.20;99.90;;;;;;5115334;28;20055;-72
2022/01/28 07:18:02;;;;;;;16.48;4.20;;;5.30;99.90;;;;;;5115997;28;20038;-69
2022/01/28 07:20:29;;;;;;;8.77;2.67;;;5.40;99.90;;;;;;5117795;28;20038;-71
2022/01/28 07:22:55;;;;;;;10.10;2.80;;;5.30;99.90;;;;;;5117648;28;20055;-70
2022/01/28 07:25:21;;;;;;;11.00;2.80;;;5.30;99.90;;;;;;5118312;28;20110;-70
2022/01/28 07:27:46;;;;;;;15.43;2.90;;;5.20;99.90;;;;;;5114816;28;20051;-68
2022/01/28 07:30:15;;;;;;;9.88;2.92;;;5.20;99.90;;;;;;5115828;28;20457;-68
2022/01/28 07:32:42;;;;;;;9.95;3.25;;;5.20;99.90;;;;;;5115698;28;20047;-67
2022/01/28 07:35:09;;;;;;;12.35;3.03;;;5.20;99.90;;;;;;5117732;28;20067;-69
2022/01/28 07:37:34;;;;;;;20.08;3.83;;;5.30;99.90;;;;;;5117930;28;20043;-69
2022/01/28 07:40:02;;;;;;;12.77;3.55;;;5.40;99.90;;;;;;5116173;28;20032;-70
2022/01/28 07:42:32;;;;;;;11.27;3.08;;;5.40;99.90;;;;;;5118357;28;20031;-69
2022/01/28 07:44:58;;;;;;;10.80;3.63;;;5.50;99.90;;;;;;5125740;27;20036;-69
2022/01/28 07:47:24;;;;;;;19.77;4.78;;;5.50;99.90;;;;;;5136483;27;20037;-69
2022/01/28 07:49:50;;;;;;;14.73;3.17;;;5.60;99.90;;;;;;5134996;27;20076;-70
2022/01/28 07:52:15;;;;;;;18.45;3.72;;;5.60;99.90;;;;;;5137164;27;20115;-69
2022/01/28 07:54:47;;;;;;;12.25;3.70;;;5.50;99.90;;;;;;5135742;27;20033;-70
2022/01/28 07:57:12;;;;;;;9.02;3.78;;;5.60;99.90;;;;;;5137449;27;20023;-72
2022/01/28 07:59:38;;;;;;;10.23;2.78;;;5.60;99.90;;;;;;5135185;27;20476;-71
2022/01/28 08:02:04;;;;;;;13.15;3.70;;;5.60;99.90;;;;;;5119151;27;20552;-70
2022/01/28 08:04:30;;;;;;;12.77;3.63;;;5.60;99.90;;;;;;5116985;27;20389;-71
2022/01/28 08:06:55;;;;;;;11.63;3.22;;;5.80;99.90;;;;;;5115712;28;20020;-71
2022/01/28 08:09:21;;;;;;;14.45;3.60;;;6.30;99.90;;;;;;5116516;28;20385;-71
2022/01/28 08:11:47;;;;;;;10.98;2.70;;;6.50;99.90;;;;;;5108448;27;20019;-71
2022/01/28 08:14:14;;;;;;;22.65;3.83;;;6.50;99.90;;;;;;5131777;27;20027;-70
2022/01/28 08:16:40;;;;;;;11.70;2.75;;;6.40;99.90;;;;;;5123786;27;20019;-72
2022/01/28 08:19:05;;;;;;;24.38;4.13;;;6.30;99.90;;;;;;5125725;27;20032;-71
2022/01/28 08:21:31;;;;;;;12.85;2.42;;;6.30;99.90;;;;;;5129610;27;20422;-71
2022/01/28 08:23:57;;;;;;;15.18;3.45;;;6.00;99.90;;;;;;5129363;27;20477;-72
2022/01/28 08:26:23;;;;;;;8.00;2.50;;;6.00;99.90;;;;;;5127712;27;20052;-71
2022/01/28 08:28:51;;;;;;;10.10;2.67;;;6.10;99.90;;;;;;5124353;27;20019;-76
2022/01/28 08:31:17;;;;;;;11.50;3.17;;;6.10;99.90;;;;;;5126231;27;20028;-71
2022/01/28 08:33:43;;;;;;;11.93;3.05;;;6.10;99.90;;;;;;5137195;27;20050;-72
2022/01/28 08:36:08;;;;;;;10.00;2.30;;;6.00;99.90;;;;;;5136966;27;20023;-70
2022/01/28 08:38:44;;;;;;;9.95;2.85;;;6.00;99.90;;;;;;5136016;27;20038;-73
2022/01/28 08:41:13;;;;;;;8.75;2.78;;;5.90;99.90;;;;;;5136723;27;20056;-72
2022/01/28 08:43:39;;;;;;;16.05;3.85;;;6.00;99.90;;;;;;5131078;27;20027;-72
2022/01/28 08:46:06;;;;;;;11.20;3.17;;;6.00;99.90;;;;;;5119733;28;20028;-73
2022/01/28 08:48:31;;;;;;;12.45;3.38;;;6.10;99.90;;;;;;5120091;28;20399;-70
2022/01/28 08:50:57;;;;;;;11.00;3.25;;;6.10;99.90;;;;;;5119918;28;20027;-72
2022/01/28 08:53:23;;;;;;;14.25;3.20;;;6.20;99.90;;;;;;5117413;28;20518;-71
2022/01/28 08:55:49;;;;;;;11.07;2.88;;;6.20;99.90;;;;;;5115950;28;20027;-71
2022/01/28 08:58:15;;;;;;;14.82;3.42;;;6.30;99.90;;;;;;5114578;28;20024;-71
2022/01/28 09:00:45;;;;;;;10.45;2.83;;;6.20;99.90;;;;;;5115705;28;20160;-70
2022/01/28 09:03:18;;;;;;;13.15;2.95;;;6.20;99.90;;;;;;5114163;28;20019;-72
2022/01/28 09:05:44;;;;;;;11.32;2.92;;;6.20;99.90;;;;;;5123344;27;20035;-70
2022/01/28 09:08:10;;;;;;;10.23;3.00;;;6.20;99.90;;;;;;5128116;27;20528;-72
2022/01/28 09:10:56;;;;;;;9.43;2.55;;;6.30;99.90;;;;;;5116190;28;20027;-71
2022/01/28 09:13:27;;;;;;;8.30;3.22;;;6.30;99.90;;;;;;5117344;27;20423;-70
2022/01/28 09:15:55;;;;;;;12.10;3.00;;;6.30;99.90;;;;;;5113853;28;20469;-73
2022/01/28 09:18:22;;;;;;;17.80;3.75;;;6.30;99.90;;;;;;5114331;28;20042;-71
2022/01/28 09:20:48;;;;;;;16.40;5.88;;;6.30;99.90;;;;;;5114715;28;20074;-69
2022/01/28 09:23:14;;;;;;;19.58;6.82;;;6.30;99.90;;;;;;5120465;27;20027;-70
2022/01/28 09:25:39;;;;;;;10.45;3.15;;;6.30;99.90;;;;;;5121097;27;20093;-71
2022/01/28 09:28:06;;;;;;;8.30;2.13;;;6.60;99.90;;;;;;5124804;27;20023;-71
2022/01/28 09:30:32;;;;;;;11.55;3.22;;;6.30;99.90;;;;;;5116320;28;20023;-70
2022/01/28 09:32:58;;;;;;;8.93;3.20;;;6.40;99.90;;;;;;5118825;27;20031;-71
2022/01/28 09:35:25;;;;;;;8.50;2.25;;;6.60;99.90;;;;;;5127372;27;20034;-70
2022/01/28 09:37:52;;;;;;;5.80;2.58;;;6.80;99.90;;;;;;5118600;27;20050;-73
2022/01/28 09:40:18;;;;;;;7.50;3.40;;;6.80;99.90;;;;;;5126635;27;20027;-69
2022/01/28 09:42:46;;;;;;;14.23;3.90;;;7.00;99.90;;;;;;5115874;28;20026;-71
2022/01/28 09:45:16;;;;;;;8.43;3.33;;;6.80;99.90;;;;;;5113906;27;20488;-70
2022/01/28 09:47:42;;;;;;;13.32;3.08;;;7.10;99.90;;;;;;5117635;28;20024;-68
2022/01/28 09:50:09;;;;;;;9.90;2.28;;;7.10;99.90;;;;;;5116222;28;20027;-70
2022/01/28 09:52:35;;;;;;;11.85;2.38;;;7.20;99.90;;;;;;5122984;27;20031;-71
2022/01/28 09:55:01;;;;;;;7.70;2.90;;;7.30;99.90;;;;;;5117632;27;20032;-70
2022/01/28 09:57:27;;;;;;;13.00;2.30;;;7.40;99.90;;;;;;5114724;27;20024;-70
2022/01/28 09:59:53;;;;;;;17.95;2.88;;;7.40;99.90;;;;;;5118211;27;20024;-69
2022/01/28 10:02:19;;;;;;;10.00;2.95;;;7.40;99.90;;;;;;5114915;28;20055;-73
2022/01/28 10:04:45;;;;;;;9.18;3.10;;;7.30;99.90;;;;;;5131411;27;20031;-70
2022/01/28 10:07:17;;;;;;;8.05;3.10;;;7.20;99.90;;;;;;5130948;27;20649;-72
2022/01/28 10:10:01;;;;;;;20.52;5.05;;;7.10;99.90;;;;;;5124470;27;20047;-71
2022/01/28 10:12:38;;;;;;;11.85;3.00;;;7.20;99.90;;;;;;5118143;27;20062;-69
2022/01/28 10:15:17;;;;;;;18.17;3.85;;;7.20;99.90;;;;;;5125325;27;20032;-67
2022/01/28 10:17:56;;;;;;;12.98;3.63;;;8.40;99.90;;;;;;5126458;27;20623;-70
2022/01/28 10:20:24;;;;;;;10.27;2.55;;;8.60;99.90;;;;;;5116143;27;20035;-71
2022/01/28 10:22:58;;;;;;;13.93;3.20;;;8.00;99.90;;;;;;5113472;28;20019;-70
2022/01/28 10:25:37;;;;;;;16.15;2.65;;;7.80;99.90;;;;;;5123536;27;20039;-70
2022/01/28 10:28:07;;;;;;;12.77;4.05;;;7.50;99.90;;;;;;5113965;28;20390;-69
2022/01/28 10:30:37;;;;;;;9.82;3.20;;;7.40;99.90;;;;;;5115340;28;20027;-71
2022/01/28 10:33:23;;;;;;;16.27;3.10;;;7.30;99.90;;;;;;5120190;27;20019;-70
2022/01/28 10:36:02;;;;;;;21.98;3.88;;;7.30;99.90;;;;;;5132429;27;20027;-71
2022/01/28 10:38:34;;;;;;;13.93;4.45;;;7.40;99.90;;;;;;5123623;27;20051;-70
2022/01/28 10:41:17;;;;;;;15.07;3.50;;;7.50;99.90;;;;;;5121847;27;20032;-74
2022/01/28 10:43:45;;;;;;;11.25;2.45;;;7.50;99.90;;;;;;5116926;27;20035;-71
2022/01/28 10:46:12;;;;;;;20.02;10.70;;;7.50;99.90;;;;;;5111981;28;20028;-69
2022/01/28 10:48:49;;;;;;;20.90;6.25;;;7.60;99.90;;;;;;5113967;28;20143;-73
2022/01/28 10:51:19;;;;;;;13.98;4.43;;;7.50;99.90;;;;;;5124922;27;20015;-72
2022/01/28 10:54:05;;;;;;;16.60;5.25;;;7.70;99.90;;;;;;5119671;27;20057;-71
2022/01/28 10:56:46;;;;;;;13.65;3.67;;;7.80;99.90;;;;;;5122803;28;20544;-70
2022/01/28 10:59:14;;;;;;;13.45;3.08;;;7.90;99.90;;;;;;5132553;28;20019;-71
2022/01/28 11:01:42;;;;;;;17.60;4.00;;;7.80;99.90;;;;;;5123971;27;20325;-71
2022/01/28 11:04:10;;;;;;;16.52;3.35;;;7.80;99.90;;;;;;5122053;27;20031;-71
2022/01/28 11:06:36;;;;;;;13.55;5.00;;;7.80;99.90;;;;;;5130535;27;20481;-73
2022/01/28 11:09:03;;;;;;;37.40;16.35;;;7.80;99.90;;;;;;5130025;27;20027;-71
2022/01/28 11:11:29;;;;;;;22.70;11.73;;;8.50;99.90;;;;;;5132860;27;20039;-74
2022/01/28 11:13:55;;;;;;;18.13;8.35;;;9.20;99.90;;;;;;5132012;27;20031;-71
2022/01/28 11:16:21;;;;;;;21.92;9.05;;;9.90;99.90;;;;;;5133165;27;20088;-70
2022/01/28 11:18:47;;;;;;;23.52;7.82;;;11.00;99.90;;;;;;5126209;27;20066;-69
2022/01/28 11:21:17;;;;;;;9.25;3.30;;;11.50;97.80;;;;;;5118058;27;20453;-72
2022/01/28 11:23:59;;;;;;;12.68;3.53;;;;;;;;;;5130244;27;20031;-72
2022/01/28 11:26:38;;;;;;;27.63;7.95;;;11.90;96.10;;;;;;5121377;27;20076;-72
2022/01/28 11:29:18;;;;;;;10.30;2.90;;;11.70;96.00;;;;;;5124418;27;20099;-71
2022/01/28 11:31:44;;;;;;;18.85;2.47;;;11.50;95.30;;;;;;5114615;27;20027;-73
2022/01/28 11:34:22;;;;;;;13.13;3.83;;;11.20;95.00;;;;;;5113377;27;20035;-71
2022/01/28 11:36:48;;;;;;;16.85;4.47;;;11.10;95.40;;;;;;5124825;27;20031;-73
2022/01/28 11:39:33;;;;;;;18.48;4.95;;;11.10;94.30;;;;;;5128424;27;20034;-71
2022/01/28 11:42:05;;;;;;;16.15;4.22;;;11.40;93.10;;;;;;5125851;27;20031;-71
2022/01/28 11:44:40;;;;;;;;;;;12.30;92.30;;;;;;5122548;27;20067;-71
2022/01/28 11:47:08;;;;;;;13.88;3.67;;;;;;;;;;5116770;28;20333;-71
2022/01/28 11:49:55;;;;;;;16.35;4.43;;;13.10;88.10;;;;;;5117330;28;20069;-70
2022/01/28 11:52:32;;;;;;;20.40;5.13;;;12.90;88.80;;;;;;5115119;28;20023;-69
2022/01/28 11:55:17;;;;;;;18.30;3.20;;;12.10;90.30;;;;;;5115822;28;20034;-71
2022/01/28 11:57:58;;;;;;;8.75;3.67;;;11.80;90.70;;;;;;5116885;28;20102;-70
2022/01/28 12:00:39;;;;;;;9.25;2.10;;;11.50;90.30;;;;;;5115734;28;20024;-69
2022/01/28 12:03:22;;;;;;;15.23;2.78;;;11.20;91.60;;;;;;5116269;27;20034;-73
2022/01/28 12:05:48;;;;;;;29.63;13.02;;;10.80;92.20;;;;;;5116726;28;20035;-71
2022/01/28 12:08:15;;;;;;;16.67;5.32;;;10.50;93.90;;;;;;5116112;28;20031;-71
2022/01/28 12:10:44;;;;;;;18.92;4.80;;;10.20;95.00;;;;;;5116629;28;20027;-70
2022/01/28 12:13:13;;;;;;;17.52;7.57;;;10.10;95.20;;;;;;5115267;28;20030;-74
2022/01/28 12:16:15;;;;;;;21.42;7.30;;;9.90;95.90;;;;;;5117060;28;20036;-74
2022/01/28 12:18:48;;;;;;;13.73;5.35;;;10.00;95.20;;;;;;5116863;28;20494;-70
2022/01/28 12:21:37;;;;;;;18.90;5.97;;;10.30;94.10;;;;;;5116540;28;20032;-70
2022/01/28 12:24:22;;;;;;;17.90;4.63;;;10.10;95.10;;;;;;5126446;27;20132;-73
2022/01/28 12:27:00;;;;;;;11.45;2.90;;;11.00;94.00;;;;;;5131379;27;20759;-70
2022/01/28 12:29:31;;;;;;;8.95;2.83;;;11.50;93.00;;;;;;5131449;27;20027;-70
2022/01/28 12:31:58;;;;;;;;;;;11.80;91.20;;;;;;5117882;28;20047;-71
2022/01/28 12:34:24;;;;;;;10.88;2.22;;;12.20;91.00;;;;;;5115912;28;19972;-72
2022/01/28 12:36:50;;;;;;;14.77;5.15;;;12.20;90.50;;;;;;5118350;28;20081;-74
2022/01/28 12:39:39;;;;;;;22.90;4.55;;;12.40;90.30;;;;;;5126879;27;20027;-70
2022/01/28 12:42:07;;;;;;;16.02;3.38;;;12.70;90.40;;;;;;5139320;27;20096;-72
2022/01/28 12:44:34;;;;;;;14.32;2.70;;;12.60;88.50;;;;;;5141073;27;20023;-73
2022/01/28 12:47:05;;;;;;;10.55;2.17;;;12.30;88.00;;;;;;5141730;27;20045;-73
2022/01/28 12:49:34;;;;;;;11.48;2.50;;;11.80;90.10;;;;;;5132140;27;20414;-72
2022/01/28 12:52:07;;;;;;;10.57;3.83;;;11.00;90.30;;;;;;5135762;27;20024;-73
2022/01/28 12:54:42;;;;;;;8.55;2.53;;;11.10;93.80;;;;;;5139147;27;20488;-71
2022/01/28 12:57:10;;;;;;;21.30;4.72;;;11.70;91.30;;;;;;5134618;27;20095;-75
2022/01/28 12:59:37;;;;;;;14.75;3.25;;;12.00;90.30;;;;;;5118693;27;20106;-72
2022/01/28 13:02:03;;;;;;;13.93;4.78;;;12.20;89.70;;;;;;5136968;27;20088;-73
2022/01/28 13:04:52;;;;;;;11.68;2.70;;;12.70;90.60;;;;;;5120488;27;20119;-71
2022/01/28 13:10:04;;;;;;;18.58;5.97;;;13.10;86.20;;;;;;5121052;27;20386;-73
2022/01/28 13:12:31;;;;;;;14.60;4.85;;;13.70;87.80;;;;;;5113721;28;20024;-69
2022/01/28 13:15:23;;;;;;;14.98;4.07;;;13.50;83.60;;;;;;5113201;27;20061;-70
2022/01/28 13:17:54;;;;;;;16.30;6.30;;;13.00;83.90;;;;;;5108059;28;20078;-71
2022/01/28 13:20:21;;;;;;;15.18;4.13;;;12.90;81.50;;;;;;5112569;28;20034;-70
2022/01/28 13:22:52;;;;;;;15.85;3.75;;;12.10;83.70;;;;;;5113503;28;20085;-70
2022/01/28 13:25:24;;;;;;;17.90;6.63;;;11.60;86.60;;;;;;5114823;27;20116;-69
2022/01/28 13:27:54;;;;;;;18.65;6.20;;;11.50;86.70;;;;;;5113720;28;20285;-71
2022/01/28 13:30:20;;;;;;;33.38;14.32;;;11.70;87.00;;;;;;5119105;27;20027;-70
2022/01/28 13:32:49;;;;;;;7.72;1.52;;;11.90;87.30;;;;;;5134314;27;20019;-71
2022/01/28 13:35:17;;;;;;;10.23;3.33;;;12.00;86.80;;;;;;5133500;27;20027;-66
2022/01/28 13:38:07;;;;;;;16.33;2.90;;;12.70;99.90;;;;;;5117830;27;20028;-68
2022/01/28 13:40:37;;;;;;;17.63;6.05;;;13.10;99.90;;;;;;5115776;28;20028;-74
2022/01/28 13:43:10;;;;;;;21.13;2.63;;;13.70;92.10;;;;;;5117337;28;20533;-70
2022/01/28 13:45:50;;;;;;;9.68;2.85;;;12.70;84.70;;;;;;5126658;27;20568;-70
2022/01/28 13:48:22;;;;;;;17.58;5.47;;;12.20;86.00;;;;;;5117408;27;20023;-70
2022/01/28 13:50:53;;;;;;;17.73;4.43;;;11.40;89.30;;;;;;5116915;27;20028;-70
2022/01/28 13:56:02;;;;;;;16.58;5.43;;;11.00;90.50;;;;;;5116464;27;20028;-70
2022/01/28 13:58:51;;;;;;;12.25;2.45;;;11.40;90.40;;;;;;5113823;27;20020;-70
2022/01/28 14:01:16;;;;;;;13.10;3.60;;;11.30;90.00;;;;;;5101994;27;20039;-76
2022/01/28 14:04:03;;;;;;;12.85;3.88;;;11.30;90.10;;;;;;5113572;28;20031;-70
2022/01/28 14:06:31;;;;;;;22.33;6.65;;;10.80;90.60;;;;;;5126008;27;20031;-68
2022/01/28 14:09:14;;;;;;;15.18;5.47;;;11.00;90.70;;;;;;5120281;27;20031;-71
2022/01/28 14:11:43;;;;;;;9.90;2.67;;;10.60;91.00;;;;;;5117343;28;20514;-72
2022/01/28 14:14:34;;;;;;;15.85;2.80;;;10.60;91.70;;;;;;5115891;28;20077;-76
2022/01/28 14:17:06;;;;;;;8.40;2.05;;;10.90;91.70;;;;;;5117368;28;20472;-73
2022/01/28 14:19:33;;;;;;;11.07;2.47;;;11.60;91.00;;;;;;5114468;28;20039;-71
2022/01/28 14:22:00;;;;;;;27.33;5.85;;;12.10;89.70;;;;;;5123060;27;20123;-70
2022/01/28 14:24:37;;;;;;;13.88;4.45;;;12.40;90.30;;;;;;5116362;27;20392;-71
2022/01/28 14:32:05;;;;;;;11.93;3.97;;;13.70;84.00;;;;;;5119686;27;20384;-70
2022/01/28 14:34:31;;;;;;;25.88;5.93;;;13.30;83.30;;;;;;5113588;27;20031;-73
2022/01/28 14:36:58;;;;;;;15.82;4.28;;;14.00;80.80;;;;;;5121709;27;20103;-71
2022/01/28 14:39:24;;;;;;;13.45;3.75;;;14.00;80.00;;;;;;5124202;27;20122;-72
2022/01/28 14:41:50;;;;;;;15.07;5.10;;;14.30;78.10;;;;;;5114211;27;20795;-70